WB8ZTP Weather Reports


Display with metric or nautical units.
time (UTC)temp
F
wind
direction
speed
MPH
gust
MPH
rain 1hr
in
rain 24hr
in
rain mn
in
humidity
%
barometer
mb
20201023211658 67 165 0.0 0.0 0.00 0.05 0.05 93 1013.2
20201023210038 66 165 0.0 0.0 0.05 0.05 0.05 93 1013.1
20201023204556 65 165 0.0 0.0 0.05 0.05 0.05 91 1013.5
20201023203059 65 250 0.0 2.0 0.05 0.05 0.05 86 1013.9
20201023201559 69 148 1.0 12.0 0.05 0.05 0.05 78 1014.1
20201023200115 74 218 1.0 14.0 0.00 0.00 0.00 74 1013.8
20201023194607 75 192 4.0 14.0 0.00 0.00 0.00 70 1013.9
20201023193045 76 220 4.0 16.0 0.00 0.00 0.00 71 1014.0
20201023191525 76 209 3.0 10.0 0.00 0.00 0.00 70 1014.1
20201023190024 76 188 5.0 13.0 0.00 0.00 0.00 73 1014.4
20201023184526 74 238 2.0 11.0 0.00 0.00 0.00 77 1014.8
20201023183022 74 205 4.0 14.0 0.00 0.00 0.00 75 1015.1
20201023181531 74 250 4.0 13.0 0.00 0.00 0.00 75 1015.4
20201023180008 74 221 7.0 17.0 0.00 0.00 0.00 73 1015.6
20201023174707 73 218 6.0 11.0 0.00 0.00 0.00 75 1015.8
20201023173159 73 172 5.0 16.0 0.00 0.00 0.00 76 1016.0
20201023171635 73 242 6.0 15.0 0.00 0.00 0.00 77 1016.2
20201023170206 73 232 7.0 18.0 0.00 0.00 0.00 75 1016.4
20201023164611 73 205 5.0 16.0 0.00 0.00 0.00 76 1016.5
20201023163202 72 201 6.0 14.0 0.00 0.00 0.00 77 1016.6
20201023161701 72 259 7.0 21.0 0.00 0.00 0.00 76 1016.8
20201023160233 72 271 8.0 14.0 0.00 0.00 0.00 77 1017.0
20201023154630 71 206 4.0 8.0 0.00 0.00 0.00 79 1017.2
20201023153118 70 207 3.0 7.0 0.00 0.00 0.00 80 1017.4
20201023151551 70 209 3.0 8.0 0.00 0.00 0.00 80 1017.5
20201023150109 69 136 3.0 8.0 0.00 0.00 0.00 82 1017.7
20201023144611 68 217 3.0 9.0 0.00 0.00 0.00 83 1018.0
20201023143129 67 205 4.0 8.0 0.00 0.00 0.00 85 1018.2
20201023141534 66 223 3.0 9.0 0.00 0.00 0.00 85 1018.4
20201023140033 65 228 2.0 9.0 0.00 0.00 0.00 87 1018.5
20201023134542 63 220 0.0 2.0 0.00 0.00 0.00 89 1018.7
20201023133036 62 136 0.0 2.0 0.00 0.00 0.00 89 1018.7
20201023131543 62 182 0.0 2.0 0.00 0.00 0.00 89 1018.6
20201023130022 62 159 0.0 4.0 0.00 0.00 0.00 91 1018.7
20201023124518 60 198 0.0 4.0 0.00 0.00 0.00 95 1018.5
20201023123019 58 159 0.0 0.0 0.00 0.00 0.00 96 1018.4
20201023121520 57 202 0.0 4.0 0.00 0.00 0.00 97 1018.3
20201023120028 56 273 0.0 4.0 0.00 0.00 0.00 97 1018.3
20201023114517 55 157 0.0 0.0 0.00 0.00 0.00 97 1018.4
20201023113025 56 157 0.0 0.0 0.00 0.00 0.00 96 1018.4
20201023111523 56 157 0.0 0.0 0.00 0.00 0.00 96 1018.3
20201023110016 55 135 0.0 0.0 0.00 0.00 0.00 96 1018.3
20201023104524 56 135 0.0 0.0 0.00 0.00 0.00 96 1018.2
20201023103021 56 135 0.0 0.0 0.00 0.00 0.00 96 1018.2
20201023101518 56 135 0.0 0.0 0.00 0.00 0.00 95 1017.9
20201023100022 56 135 0.0 0.0 0.00 0.00 0.00 94 1017.8
20201023094519 57 135 0.0 0.0 0.00 0.00 0.00 94 1017.7
20201023093008 57 135 0.0 0.0 0.00 0.00 0.00 92 1017.7
20201023091727 58 135 0.0 0.0 0.00 0.00 0.00 91 1017.6
20201023090236 59 173 0.0 2.0 0.00 0.00 0.00 92 1017.5
20201023084635 58 167 0.0 0.0 0.00 0.00 0.00 93 1017.4
20201023083225 58 181 0.0 0.0 0.00 0.00 0.00 93 1017.5
20201023081627 58 132 0.0 0.0 0.00 0.00 0.00 93 1017.5
20201023080159 58 131 0.0 0.0 0.00 0.00 0.00 95 1017.5
20201023074647 57 153 0.0 0.0 0.00 0.00 0.00 96 1017.6
20201023073126 57 135 0.0 0.0 0.00 0.00 0.00 95 1017.6
20201023071639 57 135 0.0 0.0 0.00 0.00 0.00 96 1017.6
20201023070231 57 135 0.0 0.0 0.00 0.00 0.00 95 1017.7
20201023064652 57 135 0.0 0.0 0.00 0.00 0.00 95 1017.7
20201023063127 57 135 0.0 0.0 0.00 0.00 0.00 95 1017.8
20201023061620 57 130 0.0 0.0 0.00 0.00 0.00 94 1017.7
20201023060132 58 130 0.0 0.0 0.00 0.00 0.00 94 1017.8
20201023054650 58 130 0.0 0.0 0.00 0.00 0.00 94 1017.9
20201023053134 58 180 0.0 0.0 0.00 0.00 0.00 93 1017.9
20201023051700 59 180 0.0 0.0 0.00 0.00 0.00 93 1018.0
20201023050053 59 180 0.0 0.0 0.00 0.00 0.00 92 1018.1
20201023044600 60 180 0.0 0.0 0.00 0.00 0.00 92 1018.2
20201023043116 60 189 0.0 0.0 0.00 0.00 0.00 92 1018.3
20201023041650 60 189 0.0 0.0 0.00 0.00 0.00 92 1018.5
20201023040034 60 155 0.0 0.0 0.00 0.00 0.00 92 1018.7
20201023034607 61 155 0.0 0.0 0.00 0.00 0.00 92 1018.8
20201023033122 61 193 0.0 0.0 0.00 0.00 0.00 92 1018.9
20201023031656 61 193 0.0 0.0 0.00 0.00 0.00 91 1019.0
20201023030125 61 193 0.0 0.0 0.00 0.00 0.00 91 1019.1
20201023024558 61 109 0.0 0.0 0.00 0.00 0.00 91 1019.2
20201023023120 61 109 0.0 0.0 0.00 0.00 0.00 92 1019.2
20201023021546 61 109 0.0 0.0 0.00 0.00 0.00 93 1019.3
20201023020109 61 109 0.0 0.0 0.00 0.00 0.00 93 1019.4
20201023014527 61 109 0.0 0.0 0.00 0.00 0.00 93 1019.5
20201023013100 62 109 0.0 0.0 0.00 0.00 0.00 92 1019.6
20201023011552 62 109 0.0 0.0 0.00 0.00 0.00 92 1019.6
20201023010046 62 109 0.0 0.0 0.00 0.00 0.00 92 1019.8
20201023004542 62 109 0.0 0.0 0.00 0.00 0.00 92 1019.9
20201023003042 62 109 0.0 0.0 0.00 0.00 0.00 92 1019.8
20201023001604 62 109 0.0 0.0 0.00 0.00 0.00 91 1019.8
20201023000032 63 109 0.0 0.0 0.00 0.00 0.00 90 1019.8
20201022234615 63 109 0.0 0.0 0.00 0.00 0.00 89 1019.8
20201022233050 64 109 0.0 0.0 0.00 0.00 0.00 87 1019.7
20201022231538 65 109 0.0 0.0 0.00 0.00 0.00 85 1019.6
20201022230036 67 109 0.0 0.0 0.00 0.00 0.00 82 1019.6
20201022224533 70 109 0.0 0.0 0.00 0.00 0.00 78 1019.6
20201022223050 73 109 0.0 0.0 0.00 0.00 0.00 72 1019.7
20201022221518 76 109 0.0 0.0 0.00 0.00 0.00 66 1019.6
20201022220028 77 177 0.0 2.0 0.00 0.00 0.00 63 1019.6
20201022214530 76 179 0.0 2.0 0.00 0.00 0.00 63 1019.6
20201022213040 76 202 0.0 0.0 0.00 0.00 0.00 63 1019.6